AFR16Y LFLL-EGKK
Flight info
| Callsign | AFR16Y |
|---|---|
| Flight time | 1h 6m |
| Altitude | 40000 |
| Route | BUSIL DCT AMORO DCT MOMIL DCT BAGBI DCT SIZZA DCT LAULY DCT BRY DCT CLM DCT KOPOR DCT KESAX DCT KUNAV |
| Aircraft | A35K/H-SDE2E3GHIJ3J4J5LM1ORWXY/LB1D1 |
Departure
| Time | 2026-05-04 10:49 |
|---|---|
| Airport | Lyon Saint-Exupéry Airport (LFLL) |
Arrival
| Time | 2026-05-04 11:55 |
|---|---|
| Airport | London Gatwick Airport (EGKK) |
| Time | Latitude | Longitude | Altitude | Speed | Heading |
|---|---|---|---|---|---|
| 2026-05-04 10:32 | 45.72260 | 5.08201 | 796 ft | 0 kts | 298° |
| 2026-05-04 10:40 | 45.72259 | 5.08202 | 796 ft | 1 kts | 298° |
| 2026-05-04 10:40 | 45.72254 | 5.08218 | 796 ft | 3 kts | 298° |
| 2026-05-04 10:41 | 45.72246 | 5.08239 | 797 ft | 3 kts | 296° |
| 2026-05-04 10:41 | 45.72241 | 5.08267 | 797 ft | 3 kts | 253° |
| 2026-05-04 10:41 | 45.72251 | 5.08291 | 797 ft | 3 kts | 211° |
| 2026-05-04 10:41 | 45.72269 | 5.08301 | 797 ft | 3 kts | 169° |
| 2026-05-04 10:42 | 45.72277 | 5.08298 | 796 ft | 0 kts | 167° |
| 2026-05-04 10:44 | 45.72256 | 5.08345 | 797 ft | 6 kts | 85° |
| 2026-05-04 10:45 | 45.72291 | 5.08406 | 797 ft | 11 kts | 25° |
| 2026-05-04 10:45 | 45.72391 | 5.08406 | 795 ft | 18 kts | 354° |
| 2026-05-04 10:45 | 45.72537 | 5.08388 | 794 ft | 24 kts | 355° |
| 2026-05-04 10:45 | 45.72721 | 5.08366 | 791 ft | 26 kts | 355° |
| 2026-05-04 10:46 | 45.72899 | 5.08344 | 789 ft | 25 kts | 355° |
| 2026-05-04 10:46 | 45.73085 | 5.08321 | 787 ft | 29 kts | 355° |
| 2026-05-04 10:46 | 45.73304 | 5.08295 | 784 ft | 34 kts | 355° |
| 2026-05-04 10:46 | 45.73549 | 5.08265 | 784 ft | 36 kts | 355° |
| 2026-05-04 10:47 | 45.73810 | 5.08235 | 780 ft | 39 kts | 355° |
| 2026-05-04 10:47 | 45.74019 | 5.08219 | 778 ft | 26 kts | 6° |
| 2026-05-04 10:47 | 45.74208 | 5.08273 | 776 ft | 30 kts | 13° |
| 2026-05-04 10:47 | 45.74333 | 5.08355 | 775 ft | 15 kts | 58° |
| 2026-05-04 10:49 | 45.70062 | 5.09504 | 2968 ft | 147 kts | 152° |
| 2026-05-04 10:49 | 45.69566 | 5.10728 | 3726 ft | 151 kts | 101° |
| 2026-05-04 10:50 | 45.69937 | 5.12298 | 3981 ft | 190 kts | 59° |
| 2026-05-04 10:51 | 45.80281 | 5.16704 | 7528 ft | 280 kts | 317° |
| 2026-05-04 10:52 | 45.81850 | 5.15016 | 8296 ft | 285 kts | 320° |
| 2026-05-04 10:52 | 45.83499 | 5.13415 | 9204 ft | 288 kts | 323° |
| 2026-05-04 10:52 | 45.85201 | 5.11872 | 10082 ft | 292 kts | 325° |
| 2026-05-04 10:54 | 45.99189 | 4.99595 | 13846 ft | 363 kts | 324° |
| 2026-05-04 10:54 | 46.01338 | 4.97646 | 14409 ft | 366 kts | 324° |
| 2026-05-04 10:56 | 46.16899 | 4.83549 | 18394 ft | 389 kts | 324° |
| 2026-05-04 10:56 | 46.19206 | 4.81452 | 18816 ft | 394 kts | 324° |
| 2026-05-04 10:56 | 46.21515 | 4.79352 | 19261 ft | 398 kts | 324° |
| 2026-05-04 10:57 | 46.23875 | 4.77205 | 19689 ft | 403 kts | 323° |
| 2026-05-04 10:57 | 46.26256 | 4.75035 | 20147 ft | 406 kts | 323° |
| 2026-05-04 10:57 | 46.28653 | 4.72848 | 20672 ft | 408 kts | 323° |
| 2026-05-04 10:57 | 46.31066 | 4.70657 | 21136 ft | 411 kts | 323° |
| 2026-05-04 10:58 | 46.33513 | 4.68469 | 21527 ft | 416 kts | 324° |
| 2026-05-04 10:58 | 46.35991 | 4.66271 | 21974 ft | 420 kts | 324° |
| 2026-05-04 10:58 | 46.38500 | 4.64050 | 22433 ft | 423 kts | 324° |
| 2026-05-04 10:58 | 46.41020 | 4.61817 | 22880 ft | 427 kts | 324° |
| 2026-05-04 10:59 | 46.43569 | 4.59552 | 23329 ft | 431 kts | 324° |
| 2026-05-04 10:59 | 46.46148 | 4.57302 | 23715 ft | 436 kts | 327° |
| 2026-05-04 10:59 | 46.48958 | 4.55539 | 24123 ft | 444 kts | 339° |
| 2026-05-04 10:59 | 46.52000 | 4.54664 | 24587 ft | 450 kts | 353° |
| 2026-05-04 11:00 | 46.55142 | 4.54700 | 24985 ft | 454 kts | 2° |
| 2026-05-04 11:01 | 46.77600 | 4.58836 | 28187 ft | 475 kts | 1° |
| 2026-05-04 11:02 | 46.80899 | 4.58678 | 28702 ft | 476 kts | 351° |
| 2026-05-04 11:02 | 46.84139 | 4.57666 | 29213 ft | 476 kts | 339° |
| 2026-05-04 11:05 | 47.28291 | 4.29004 | 35272 ft | 514 kts | 332° |
| 2026-05-04 11:06 | 47.31555 | 4.26846 | 35669 ft | 514 kts | 332° |
| 2026-05-04 11:06 | 47.34806 | 4.24695 | 36240 ft | 510 kts | 332° |
| 2026-05-04 11:06 | 47.36944 | 4.23280 | 36611 ft | 508 kts | 332° |
| 2026-05-04 11:06 | 47.40165 | 4.21143 | 37137 ft | 506 kts | 332° |
| 2026-05-04 11:08 | 47.62441 | 4.06286 | 39822 ft | 501 kts | 332° |
| 2026-05-04 11:10 | 47.84822 | 3.91236 | 39976 ft | 515 kts | 332° |
| 2026-05-04 11:12 | 48.10973 | 3.73483 | 39972 ft | 515 kts | 332° |
| 2026-05-04 11:12 | 48.16953 | 3.67786 | 39969 ft | 506 kts | 315° |
| 2026-05-04 11:13 | 48.21909 | 3.60357 | 39971 ft | 503 kts | 309° |
| 2026-05-04 11:13 | 48.26616 | 3.52692 | 39974 ft | 503 kts | 308° |
| 2026-05-04 11:14 | 48.31325 | 3.44917 | 39977 ft | 503 kts | 309° |
| 2026-05-04 11:16 | 48.54171 | 3.20773 | 39975 ft | 517 kts | 334° |
| 2026-05-04 11:16 | 48.60809 | 3.16601 | 39977 ft | 517 kts | 334° |
| 2026-05-04 11:17 | 48.67438 | 3.12389 | 39978 ft | 516 kts | 334° |
| 2026-05-04 11:19 | 48.93274 | 2.93756 | 39954 ft | 513 kts | 327° |
| 2026-05-04 11:19 | 48.96370 | 2.91045 | 39796 ft | 512 kts | 327° |
| 2026-05-04 11:19 | 48.99413 | 2.88367 | 39573 ft | 513 kts | 327° |
| 2026-05-04 11:20 | 49.02505 | 2.85641 | 39343 ft | 514 kts | 326° |
| 2026-05-04 11:20 | 49.05596 | 2.82914 | 39132 ft | 514 kts | 327° |
| 2026-05-04 11:20 | 49.08688 | 2.80188 | 39005 ft | 513 kts | 326° |
| 2026-05-04 11:20 | 49.11774 | 2.77465 | 38872 ft | 513 kts | 326° |
| 2026-05-04 11:22 | 49.33420 | 2.58267 | 37066 ft | 519 kts | 326° |
| 2026-05-04 11:22 | 49.36539 | 2.55485 | 36800 ft | 520 kts | 326° |
| 2026-05-04 11:23 | 49.39666 | 2.52692 | 36527 ft | 521 kts | 326° |
| 2026-05-04 11:23 | 49.42779 | 2.49907 | 36304 ft | 522 kts | 326° |
| 2026-05-04 11:24 | 49.60222 | 2.30620 | 34326 ft | 508 kts | 315° |
| 2026-05-04 11:25 | 49.62882 | 2.27051 | 34060 ft | 509 kts | 314° |
| 2026-05-04 11:25 | 49.65557 | 2.23451 | 33820 ft | 511 kts | 315° |
| 2026-05-04 11:25 | 49.68242 | 2.19841 | 33553 ft | 512 kts | 315° |
| 2026-05-04 11:26 | 49.73621 | 2.12627 | 32985 ft | 512 kts | 315° |
| 2026-05-04 11:27 | 49.92411 | 1.87354 | 31157 ft | 507 kts | 315° |
| 2026-05-04 11:28 | 49.95067 | 1.83760 | 30914 ft | 504 kts | 315° |
| 2026-05-04 11:28 | 49.97701 | 1.80190 | 30680 ft | 501 kts | 316° |
| 2026-05-04 11:28 | 50.00318 | 1.76637 | 30441 ft | 499 kts | 316° |
| 2026-05-04 11:28 | 50.02928 | 1.73088 | 30193 ft | 496 kts | 316° |
| 2026-05-04 11:29 | 50.05517 | 1.69562 | 29943 ft | 494 kts | 316° |
| 2026-05-04 11:29 | 50.08095 | 1.66050 | 29643 ft | 492 kts | 316° |
| 2026-05-04 11:29 | 50.10667 | 1.62565 | 29355 ft | 490 kts | 316° |
| 2026-05-04 11:29 | 50.13233 | 1.59087 | 28679 ft | 487 kts | 316° |
| 2026-05-04 11:31 | 50.30370 | 1.35718 | 24124 ft | 451 kts | 316° |
| 2026-05-04 11:33 | 50.46185 | 1.13931 | 19278 ft | 416 kts | 317° |
| 2026-05-04 11:33 | 50.48351 | 1.10932 | 18589 ft | 412 kts | 317° |
| 2026-05-04 11:33 | 50.50488 | 1.07966 | 17849 ft | 409 kts | 317° |
| 2026-05-04 11:34 | 50.52512 | 1.04865 | 17109 ft | 404 kts | 313° |
| 2026-05-04 11:34 | 50.54429 | 1.01669 | 16369 ft | 399 kts | 312° |
| 2026-05-04 11:34 | 50.56311 | 0.98490 | 15669 ft | 395 kts | 312° |
| 2026-05-04 11:34 | 50.58177 | 0.95335 | 14958 ft | 391 kts | 312° |
| 2026-05-04 11:35 | 50.60023 | 0.92212 | 14274 ft | 387 kts | 312° |
| 2026-05-04 11:35 | 50.61850 | 0.89120 | 13548 ft | 384 kts | 312° |
| 2026-05-04 11:35 | 50.63634 | 0.86099 | 12810 ft | 380 kts | 312° |
| 2026-05-04 11:35 | 50.65429 | 0.83056 | 12105 ft | 374 kts | 311° |
| 2026-05-04 11:36 | 50.67187 | 0.80074 | 11432 ft | 369 kts | 311° |
| 2026-05-04 11:36 | 50.68886 | 0.77077 | 10721 ft | 364 kts | 308° |
| 2026-05-04 11:36 | 50.70443 | 0.73989 | 10085 ft | 359 kts | 307° |
| 2026-05-04 11:36 | 50.71953 | 0.70951 | 9748 ft | 344 kts | 307° |
| 2026-05-04 11:37 | 50.73378 | 0.68109 | 9373 ft | 320 kts | 307° |
| 2026-05-04 11:37 | 50.74709 | 0.65471 | 8917 ft | 297 kts | 307° |
| 2026-05-04 11:37 | 50.75970 | 0.62976 | 8333 ft | 285 kts | 307° |
| 2026-05-04 11:37 | 50.77199 | 0.60542 | 8035 ft | 281 kts | 308° |
| 2026-05-04 11:38 | 50.78395 | 0.58181 | 7832 ft | 269 kts | 308° |
| 2026-05-04 11:38 | 50.79546 | 0.55912 | 7652 ft | 259 kts | 308° |
| 2026-05-04 11:38 | 50.80646 | 0.53737 | 7445 ft | 250 kts | 307° |
| 2026-05-04 11:38 | 50.81804 | 0.51723 | 7139 ft | 247 kts | 321° |
| 2026-05-04 11:39 | 50.83244 | 0.50277 | 7023 ft | 244 kts | 330° |
| 2026-05-04 11:39 | 50.84742 | 0.48990 | 6996 ft | 245 kts | 331° |
| 2026-05-04 11:40 | 50.93651 | 0.41094 | 6981 ft | 244 kts | 309° |
| 2026-05-04 11:41 | 50.94432 | 0.38751 | 6994 ft | 241 kts | 286° |
| 2026-05-04 11:41 | 50.94851 | 0.36183 | 6976 ft | 241 kts | 282° |
| 2026-05-04 11:41 | 50.95212 | 0.33586 | 6990 ft | 241 kts | 281° |
| 2026-05-04 11:41 | 50.95570 | 0.30987 | 6987 ft | 241 kts | 281° |
| 2026-05-04 11:42 | 50.95932 | 0.28382 | 6976 ft | 240 kts | 281° |
| 2026-05-04 11:42 | 50.96191 | 0.25763 | 6990 ft | 240 kts | 277° |
| 2026-05-04 11:42 | 50.96402 | 0.23144 | 6988 ft | 240 kts | 276° |
| 2026-05-04 11:42 | 50.96606 | 0.20508 | 6979 ft | 241 kts | 276° |
| 2026-05-04 11:43 | 50.96810 | 0.17881 | 6803 ft | 237 kts | 276° |
| 2026-05-04 11:43 | 50.97018 | 0.15275 | 6444 ft | 238 kts | 276° |
| 2026-05-04 11:43 | 50.97219 | 0.12708 | 6098 ft | 237 kts | 276° |
| 2026-05-04 11:43 | 50.97426 | 0.10111 | 5741 ft | 236 kts | 276° |
| 2026-05-04 11:44 | 50.97624 | 0.07517 | 5361 ft | 237 kts | 276° |
| 2026-05-04 11:44 | 50.97815 | 0.04918 | 5015 ft | 236 kts | 276° |
| 2026-05-04 11:44 | 50.98008 | 0.02331 | 4679 ft | 235 kts | 276° |
| 2026-05-04 11:44 | 50.98195 | -0.00249 | 4337 ft | 235 kts | 276° |
| 2026-05-04 11:45 | 50.98374 | -0.02824 | 4050 ft | 234 kts | 276° |
| 2026-05-04 11:45 | 50.98554 | -0.05393 | 3984 ft | 235 kts | 276° |
| 2026-05-04 11:45 | 50.98731 | -0.07969 | 3983 ft | 235 kts | 276° |
| 2026-05-04 11:45 | 50.98906 | -0.10547 | 3986 ft | 234 kts | 276° |
| 2026-05-04 11:46 | 50.99082 | -0.13124 | 3989 ft | 235 kts | 276° |
| 2026-05-04 11:46 | 50.99256 | -0.15669 | 3989 ft | 235 kts | 276° |
| 2026-05-04 11:46 | 50.99430 | -0.18239 | 3958 ft | 235 kts | 276° |
| 2026-05-04 11:46 | 50.99605 | -0.20834 | 3620 ft | 236 kts | 276° |
| 2026-05-04 11:47 | 50.99775 | -0.23409 | 3321 ft | 233 kts | 276° |
| 2026-05-04 11:47 | 50.99941 | -0.25954 | 3043 ft | 231 kts | 276° |
| 2026-05-04 11:47 | 51.00104 | -0.28475 | 2982 ft | 222 kts | 276° |
| 2026-05-04 11:47 | 51.00254 | -0.30812 | 2990 ft | 204 kts | 276° |
| 2026-05-04 11:48 | 51.00392 | -0.32963 | 2989 ft | 191 kts | 276° |
| 2026-05-04 11:48 | 51.00525 | -0.35056 | 2972 ft | 190 kts | 276° |
| 2026-05-04 11:48 | 51.00723 | -0.37129 | 2960 ft | 191 kts | 286° |
| 2026-05-04 11:48 | 51.01338 | -0.38989 | 2990 ft | 190 kts | 304° |
| 2026-05-04 11:49 | 51.02084 | -0.40716 | 2985 ft | 189 kts | 306° |
| 2026-05-04 11:49 | 51.02846 | -0.42419 | 2985 ft | 190 kts | 306° |
| 2026-05-04 11:49 | 51.03610 | -0.44133 | 2985 ft | 190 kts | 305° |
| 2026-05-04 11:49 | 51.04533 | -0.45625 | 2979 ft | 191 kts | 329° |
| 2026-05-04 11:50 | 51.05773 | -0.46289 | 2980 ft | 189 kts | 356° |
| 2026-05-04 11:50 | 51.07012 | -0.45755 | 2987 ft | 187 kts | 33° |
| 2026-05-04 11:50 | 51.08017 | -0.44437 | 2814 ft | 190 kts | 44° |
| 2026-05-04 11:50 | 51.08960 | -0.42957 | 2504 ft | 188 kts | 46° |
| 2026-05-04 11:51 | 51.09861 | -0.41510 | 2297 ft | 180 kts | 46° |
| 2026-05-04 11:51 | 51.10736 | -0.40100 | 2044 ft | 179 kts | 46° |
| 2026-05-04 11:51 | 51.11621 | -0.38676 | 1991 ft | 182 kts | 45° |
| 2026-05-04 11:51 | 51.12343 | -0.37095 | 1979 ft | 169 kts | 63° |
| 2026-05-04 11:52 | 51.12631 | -0.35338 | 1987 ft | 163 kts | 83° |
| 2026-05-04 11:52 | 51.12793 | -0.33540 | 1865 ft | 163 kts | 80° |
| 2026-05-04 11:52 | 51.12959 | -0.32377 | 1730 ft | 163 kts | 74° |
| 2026-05-04 11:52 | 51.13237 | -0.30642 | 1498 ft | 161 kts | 79° |
| 2026-05-04 11:53 | 51.13459 | -0.28893 | 1292 ft | 158 kts | 78° |
| 2026-05-04 11:53 | 51.13688 | -0.27243 | 1066 ft | 149 kts | 77° |
| 2026-05-04 11:53 | 51.13900 | -0.25680 | 882 ft | 139 kts | 76° |
| 2026-05-04 11:53 | 51.14086 | -0.24238 | 727 ft | 128 kts | 76° |
| 2026-05-04 11:55 | 51.15008 | -0.17899 | 222 ft | 32 kts | 57° |
| 2026-05-04 11:55 | 51.15069 | -0.17778 | 220 ft | 2 kts | 38° |
| 2026-05-04 11:56 | 51.15131 | -0.17757 | 217 ft | 15 kts | 8° |
| 2026-05-04 11:56 | 51.15191 | -0.17630 | 223 ft | 18 kts | 76° |
| 2026-05-04 11:56 | 51.15224 | -0.17404 | 218 ft | 17 kts | 77° |
| 2026-05-04 11:56 | 51.15247 | -0.17234 | 214 ft | 16 kts | 78° |
| 2026-05-04 11:57 | 51.15262 | -0.17115 | 216 ft | 0 kts | 78° |
| 2026-05-04 11:57 | 51.15269 | -0.17065 | 210 ft | 9 kts | 78° |
| 2026-05-04 11:57 | 51.15286 | -0.16938 | 211 ft | 11 kts | 77° |
| 2026-05-04 11:57 | 51.15289 | -0.16921 | 219 ft | 0 kts | 77° |
| 2026-05-04 11:58 | 51.15290 | -0.16912 | 218 ft | 4 kts | 77° |
| 2026-05-04 11:58 | 51.15320 | -0.16818 | 220 ft | 11 kts | 30° |
| 2026-05-04 11:59 | 51.15361 | -0.16905 | 217 ft | 16 kts | 269° |
| 2026-05-04 11:59 | 51.15340 | -0.17079 | 217 ft | 17 kts | 257° |
| 2026-05-04 11:59 | 51.15313 | -0.17275 | 218 ft | 19 kts | 259° |
| 2026-05-04 11:59 | 51.15358 | -0.17371 | 218 ft | 13 kts | 337° |
| 2026-05-04 12:00 | 51.15461 | -0.17406 | 219 ft | 17 kts | 348° |
| 2026-05-04 12:00 | 51.15550 | -0.17437 | 217 ft | 7 kts | 348° |
| 2026-05-04 12:00 | 51.15612 | -0.17459 | 222 ft | 12 kts | 347° |
| 2026-05-04 12:00 | 51.15706 | -0.17494 | 221 ft | 16 kts | 347° |
| 2026-05-04 12:01 | 51.15801 | -0.17495 | 219 ft | 10 kts | 350° |
| 2026-05-04 12:01 | 51.15854 | -0.17513 | 216 ft | 0 kts | 347° |